sensor_id;sensor_type;location;lat;lon;timestamp;temperature;humidity
25951;DHT22;13748;52.240;6.002;2022-10-30T00:00:52;15.80;99.90
25951;DHT22;13748;52.240;6.002;2022-10-30T00:03:19;15.80;99.90
25951;DHT22;13748;52.240;6.002;2022-10-30T00:05:48;15.90;99.90
25951;DHT22;13748;52.240;6.002;2022-10-30T00:08:17;15.90;99.90
25951;DHT22;13748;52.240;6.002;2022-10-30T00:10:44;15.90;99.90
25951;DHT22;13748;52.240;6.002;2022-10-30T00:13:12;15.90;99.90
25951;DHT22;13748;52.240;6.002;2022-10-30T00:15:39;15.90;99.90
25951;DHT22;13748;52.240;6.002;2022-10-30T00:18:11;15.90;99.90
25951;DHT22;13748;52.240;6.002;2022-10-30T00:20:39;16.00;99.90
25951;DHT22;13748;52.240;6.002;2022-10-30T00:23:05;16.00;99.90
25951;DHT22;13748;52.240;6.002;2022-10-30T00:25:34;16.00;99.90
25951;DHT22;13748;52.240;6.002;2022-10-30T00:28:04;16.00;99.90
25951;DHT22;13748;52.240;6.002;2022-10-30T00:30:32;16.00;99.90
25951;DHT22;13748;52.240;6.002;2022-10-30T00:32:58;16.00;99.90
25951;DHT22;13748;52.240;6.002;2022-10-30T00:35:26;16.00;99.90
25951;DHT22;13748;52.240;6.002;2022-10-30T00:37:53;16.00;99.90
25951;DHT22;13748;52.240;6.002;2022-10-30T00:40:21;16.00;99.90
25951;DHT22;13748;52.240;6.002;2022-10-30T00:42:48;16.00;99.90
25951;DHT22;13748;52.240;6.002;2022-10-30T00:45:17;15.90;99.90
25951;DHT22;13748;52.240;6.002;2022-10-30T00:47:59;16.00;99.90
25951;DHT22;13748;52.240;6.002;2022-10-30T00:50:31;15.90;99.90
25951;DHT22;13748;52.240;6.002;2022-10-30T00:53:06;15.80;99.90
25951;DHT22;13748;52.240;6.002;2022-10-30T00:55:37;15.80;99.90
25951;DHT22;13748;52.240;6.002;2022-10-30T00:58:08;15.70;99.90
25951;DHT22;13748;52.240;6.002;2022-10-30T01:00:38;15.60;99.90
25951;DHT22;13748;52.240;6.002;2022-10-30T01:03:06;15.60;99.90
25951;DHT22;13748;52.240;6.002;2022-10-30T01:05:34;15.50;99.90
25951;DHT22;13748;52.240;6.002;2022-10-30T01:08:01;15.50;99.90
25951;DHT22;13748;52.240;6.002;2022-10-30T01:10:28;15.40;99.90
25951;DHT22;13748;52.240;6.002;2022-10-30T01:12:57;15.40;99.90
25951;DHT22;13748;52.240;6.002;2022-10-30T01:15:37;15.30;99.90
25951;DHT22;13748;52.240;6.002;2022-10-30T01:26:56;15.10;99.90
25951;DHT22;13748;52.240;6.002;2022-10-30T01:34:44;14.90;99.90
25951;DHT22;13748;52.240;6.002;2022-10-30T01:37:33;14.90;99.90
25951;DHT22;13748;52.240;6.002;2022-10-30T01:40:04;14.90;99.90
25951;DHT22;13748;52.240;6.002;2022-10-30T01:42:41;14.80;99.90
25951;DHT22;13748;52.240;6.002;2022-10-30T01:45:21;14.80;99.90
25951;DHT22;13748;52.240;6.002;2022-10-30T01:50:50;14.70;99.90
25951;DHT22;13748;52.240;6.002;2022-10-30T01:53:35;14.70;99.90
25951;DHT22;13748;52.240;6.002;2022-10-30T01:56:14;14.70;99.90
25951;DHT22;13748;52.240;6.002;2022-10-30T01:59:18;14.70;99.90
25951;DHT22;13748;52.240;6.002;2022-10-30T02:01:47;14.60;99.90
25951;DHT22;13748;52.240;6.002;2022-10-30T02:04:14;14.60;99.90
25951;DHT22;13748;52.240;6.002;2022-10-30T02:06:41;14.50;99.90
25951;DHT22;13748;52.240;6.002;2022-10-30T02:09:08;14.50;99.90
25951;DHT22;13748;52.240;6.002;2022-10-30T02:11:36;14.50;99.90
25951;DHT22;13748;52.240;6.002;2022-10-30T02:14:05;14.50;99.90
25951;DHT22;13748;52.240;6.002;2022-10-30T02:16:36;14.50;99.90
25951;DHT22;13748;52.240;6.002;2022-10-30T02:19:04;14.50;99.90
25951;DHT22;13748;52.240;6.002;2022-10-30T02:21:33;14.50;99.90
25951;DHT22;13748;52.240;6.002;2022-10-30T02:24:00;14.50;99.90
25951;DHT22;13748;52.240;6.002;2022-10-30T02:26:26;14.50;99.90
25951;DHT22;13748;52.240;6.002;2022-10-30T02:28:53;14.50;99.90
25951;DHT22;13748;52.240;6.002;2022-10-30T02:31:23;14.50;99.90
25951;DHT22;13748;52.240;6.002;2022-10-30T02:33:50;14.50;99.90
25951;DHT22;13748;52.240;6.002;2022-10-30T02:36:17;14.40;99.90
25951;DHT22;13748;52.240;6.002;2022-10-30T02:38:43;14.40;99.90
25951;DHT22;13748;52.240;6.002;2022-10-30T02:41:10;14.40;99.90
25951;DHT22;13748;52.240;6.002;2022-10-30T02:43:37;14.40;99.90
25951;DHT22;13748;52.240;6.002;2022-10-30T02:46:04;14.50;99.90
25951;DHT22;13748;52.240;6.002;2022-10-30T02:48:31;14.40;99.90
25951;DHT22;13748;52.240;6.002;2022-10-30T02:50:59;14.40;99.90
25951;DHT22;13748;52.240;6.002;2022-10-30T02:53:26;14.40;99.90
25951;DHT22;13748;52.240;6.002;2022-10-30T02:55:54;14.30;99.90
25951;DHT22;13748;52.240;6.002;2022-10-30T02:58:20;14.30;99.90
25951;DHT22;13748;52.240;6.002;2022-10-30T03:00:47;14.30;99.90
25951;DHT22;13748;52.240;6.002;2022-10-30T03:03:14;14.30;99.90
25951;DHT22;13748;52.240;6.002;2022-10-30T03:05:45;14.30;99.90
25951;DHT22;13748;52.240;6.002;2022-10-30T03:08:12;14.30;99.90
25951;DHT22;13748;52.240;6.002;2022-10-30T03:10:39;14.30;99.90
25951;DHT22;13748;52.240;6.002;2022-10-30T03:13:05;14.20;99.90
25951;DHT22;13748;52.240;6.002;2022-10-30T03:15:32;14.70;99.90
25951;DHT22;13748;52.240;6.002;2022-10-30T03:17:59;14.20;99.90
25951;DHT22;13748;52.240;6.002;2022-10-30T03:20:26;14.20;99.90
25951;DHT22;13748;52.240;6.002;2022-10-30T03:22:53;14.20;99.90
25951;DHT22;13748;52.240;6.002;2022-10-30T03:25:19;14.20;99.90
25951;DHT22;13748;52.240;6.002;2022-10-30T03:27:49;14.10;99.90
25951;DHT22;13748;52.240;6.002;2022-10-30T03:30:17;14.10;99.90
25951;DHT22;13748;52.240;6.002;2022-10-30T03:32:43;14.10;99.90
25951;DHT22;13748;52.240;6.002;2022-10-30T03:35:10;14.10;99.90
25951;DHT22;13748;52.240;6.002;2022-10-30T03:37:37;14.20;99.90
25951;DHT22;13748;52.240;6.002;2022-10-30T03:40:04;14.20;99.90
25951;DHT22;13748;52.240;6.002;2022-10-30T03:42:30;14.20;99.90
25951;DHT22;13748;52.240;6.002;2022-10-30T03:44:57;14.20;99.90
25951;DHT22;13748;52.240;6.002;2022-10-30T03:47:24;14.20;99.90
25951;DHT22;13748;52.240;6.002;2022-10-30T03:49:51;14.20;99.90
25951;DHT22;13748;52.240;6.002;2022-10-30T03:52:17;14.20;99.90
25951;DHT22;13748;52.240;6.002;2022-10-30T03:54:44;14.20;99.90
25951;DHT22;13748;52.240;6.002;2022-10-30T03:57:11;14.20;99.90
25951;DHT22;13748;52.240;6.002;2022-10-30T03:59:37;14.20;99.90
25951;DHT22;13748;52.240;6.002;2022-10-30T04:02:04;14.20;99.90
25951;DHT22;13748;52.240;6.002;2022-10-30T04:04:31;14.20;99.90
25951;DHT22;13748;52.240;6.002;2022-10-30T04:06:58;14.20;99.90
25951;DHT22;13748;52.240;6.002;2022-10-30T04:09:24;14.20;99.90
25951;DHT22;13748;52.240;6.002;2022-10-30T04:11:51;14.10;99.90
25951;DHT22;13748;52.240;6.002;2022-10-30T04:14:18;14.10;99.90
25951;DHT22;13748;52.240;6.002;2022-10-30T04:16:44;14.10;99.90
25951;DHT22;13748;52.240;6.002;2022-10-30T04:19:11;14.10;99.90
25951;DHT22;13748;52.240;6.002;2022-10-30T04:21:38;14.10;99.90
25951;DHT22;13748;52.240;6.002;2022-10-30T04:24:05;14.00;99.90
25951;DHT22;13748;52.240;6.002;2022-10-30T04:26:31;14.00;99.90
25951;DHT22;13748;52.240;6.002;2022-10-30T04:28:58;14.00;99.90
25951;DHT22;13748;52.240;6.002;2022-10-30T04:31:25;14.00;99.90
25951;DHT22;13748;52.240;6.002;2022-10-30T04:33:51;13.80;99.90
25951;DHT22;13748;52.240;6.002;2022-10-30T04:36:18;13.80;99.90
25951;DHT22;13748;52.240;6.002;2022-10-30T04:38:47;13.80;99.90
25951;DHT22;13748;52.240;6.002;2022-10-30T04:41:13;13.80;99.90
25951;DHT22;13748;52.240;6.002;2022-10-30T04:43:40;13.70;99.90
25951;DHT22;13748;52.240;6.002;2022-10-30T04:46:07;13.80;99.90
25951;DHT22;13748;52.240;6.002;2022-10-30T04:48:33;13.70;99.90
25951;DHT22;13748;52.240;6.002;2022-10-30T04:51:02;13.70;99.90
25951;DHT22;13748;52.240;6.002;2022-10-30T04:53:29;13.60;99.90
25951;DHT22;13748;52.240;6.002;2022-10-30T04:55:56;13.60;99.90
25951;DHT22;13748;52.240;6.002;2022-10-30T04:58:22;13.60;99.90
25951;DHT22;13748;52.240;6.002;2022-10-30T05:00:49;13.60;99.90
25951;DHT22;13748;52.240;6.002;2022-10-30T05:03:25;13.50;99.90
25951;DHT22;13748;52.240;6.002;2022-10-30T05:06:03;13.50;99.90
25951;DHT22;13748;52.240;6.002;2022-10-30T05:08:31;13.50;99.90
25951;DHT22;13748;52.240;6.002;2022-10-30T05:10:59;13.40;99.90
25951;DHT22;13748;52.240;6.002;2022-10-30T05:13:29;13.40;99.90
25951;DHT22;13748;52.240;6.002;2022-10-30T05:15:55;13.40;99.90
25951;DHT22;13748;52.240;6.002;2022-10-30T05:18:22;13.30;99.90
25951;DHT22;13748;52.240;6.002;2022-10-30T05:20:49;13.30;99.90
25951;DHT22;13748;52.240;6.002;2022-10-30T05:23:16;13.20;99.90
25951;DHT22;13748;52.240;6.002;2022-10-30T05:25:42;13.10;99.90
25951;DHT22;13748;52.240;6.002;2022-10-30T05:28:09;13.10;99.90
25951;DHT22;13748;52.240;6.002;2022-10-30T05:30:36;13.10;99.90
25951;DHT22;13748;52.240;6.002;2022-10-30T05:33:05;13.10;99.90
25951;DHT22;13748;52.240;6.002;2022-10-30T05:35:33;13.00;99.90
25951;DHT22;13748;52.240;6.002;2022-10-30T05:38:01;13.30;99.90
25951;DHT22;13748;52.240;6.002;2022-10-30T05:40:28;13.00;99.90
25951;DHT22;13748;52.240;6.002;2022-10-30T05:42:55;12.90;99.90
25951;DHT22;13748;52.240;6.002;2022-10-30T05:45:23;13.00;99.90
25951;DHT22;13748;52.240;6.002;2022-10-30T05:47:54;12.90;99.90
25951;DHT22;13748;52.240;6.002;2022-10-30T05:50:22;12.90;99.90
25951;DHT22;13748;52.240;6.002;2022-10-30T05:52:49;12.80;99.90
25951;DHT22;13748;52.240;6.002;2022-10-30T05:55:15;12.80;99.90
25951;DHT22;13748;52.240;6.002;2022-10-30T05:57:42;12.80;99.90
25951;DHT22;13748;52.240;6.002;2022-10-30T06:00:09;12.70;99.90
25951;DHT22;13748;52.240;6.002;2022-10-30T06:02:37;12.70;99.90
25951;DHT22;13748;52.240;6.002;2022-10-30T06:05:04;12.70;99.90
25951;DHT22;13748;52.240;6.002;2022-10-30T06:07:32;12.70;99.90
25951;DHT22;13748;52.240;6.002;2022-10-30T06:09:58;12.70;99.90
25951;DHT22;13748;52.240;6.002;2022-10-30T06:12:25;12.60;99.90
25951;DHT22;13748;52.240;6.002;2022-10-30T06:14:52;12.60;99.90
25951;DHT22;13748;52.240;6.002;2022-10-30T06:17:18;12.60;99.90
25951;DHT22;13748;52.240;6.002;2022-10-30T06:19:45;12.60;99.90
25951;DHT22;13748;52.240;6.002;2022-10-30T06:22:12;12.60;99.90
25951;DHT22;13748;52.240;6.002;2022-10-30T06:24:38;12.60;99.90
25951;DHT22;13748;52.240;6.002;2022-10-30T06:27:05;12.60;99.90
25951;DHT22;13748;52.240;6.002;2022-10-30T06:29:32;12.60;99.90
25951;DHT22;13748;52.240;6.002;2022-10-30T06:31:59;12.60;99.90
25951;DHT22;13748;52.240;6.002;2022-10-30T06:34:32;12.60;99.90
25951;DHT22;13748;52.240;6.002;2022-10-30T06:36:58;12.60;99.90
25951;DHT22;13748;52.240;6.002;2022-10-30T06:39:25;12.60;99.90
25951;DHT22;13748;52.240;6.002;2022-10-30T06:41:52;12.70;99.90
25951;DHT22;13748;52.240;6.002;2022-10-30T06:44:19;12.60;99.90
25951;DHT22;13748;52.240;6.002;2022-10-30T06:46:45;12.60;99.90
25951;DHT22;13748;52.240;6.002;2022-10-30T06:49:12;12.60;99.90
25951;DHT22;13748;52.240;6.002;2022-10-30T06:51:39;12.60;99.90
25951;DHT22;13748;52.240;6.002;2022-10-30T06:54:05;12.60;99.90
25951;DHT22;13748;52.240;6.002;2022-10-30T06:56:32;12.60;99.90
25951;DHT22;13748;52.240;6.002;2022-10-30T06:58:59;12.60;99.90
25951;DHT22;13748;52.240;6.002;2022-10-30T07:01:26;12.60;99.90
25951;DHT22;13748;52.240;6.002;2022-10-30T07:03:55;12.50;99.90
25951;DHT22;13748;52.240;6.002;2022-10-30T07:06:22;12.60;99.90
25951;DHT22;13748;52.240;6.002;2022-10-30T07:08:48;12.60;99.90
25951;DHT22;13748;52.240;6.002;2022-10-30T07:11:15;12.70;99.90
25951;DHT22;13748;52.240;6.002;2022-10-30T07:13:42;12.70;99.90
25951;DHT22;13748;52.240;6.002;2022-10-30T07:16:09;12.70;99.90
25951;DHT22;13748;52.240;6.002;2022-10-30T07:18:35;12.80;99.90
25951;DHT22;13748;52.240;6.002;2022-10-30T07:21:02;12.80;99.90
25951;DHT22;13748;52.240;6.002;2022-10-30T07:23:29;12.80;99.90
25951;DHT22;13748;52.240;6.002;2022-10-30T07:25:55;12.90;99.90
25951;DHT22;13748;52.240;6.002;2022-10-30T07:28:29;12.90;99.90
25951;DHT22;13748;52.240;6.002;2022-10-30T07:30:57;12.90;99.90
25951;DHT22;13748;52.240;6.002;2022-10-30T07:33:24;12.90;99.90
25951;DHT22;13748;52.240;6.002;2022-10-30T07:35:51;13.00;99.90
25951;DHT22;13748;52.240;6.002;2022-10-30T07:38:18;13.00;99.90
25951;DHT22;13748;52.240;6.002;2022-10-30T07:40:51;13.10;99.90
25951;DHT22;13748;52.240;6.002;2022-10-30T07:43:18;13.10;99.90
25951;DHT22;13748;52.240;6.002;2022-10-30T07:45:45;13.10;99.90
25951;DHT22;13748;52.240;6.002;2022-10-30T07:48:12;13.20;99.90
25951;DHT22;13748;52.240;6.002;2022-10-30T07:50:39;13.20;99.90
25951;DHT22;13748;52.240;6.002;2022-10-30T07:53:05;13.30;99.90
25951;DHT22;13748;52.240;6.002;2022-10-30T07:55:32;13.40;99.90
25951;DHT22;13748;52.240;6.002;2022-10-30T07:57:59;13.40;99.90
25951;DHT22;13748;52.240;6.002;2022-10-30T08:00:26;13.50;99.90
25951;DHT22;13748;52.240;6.002;2022-10-30T08:02:55;13.50;99.90
25951;DHT22;13748;52.240;6.002;2022-10-30T08:05:23;13.60;99.90
25951;DHT22;13748;52.240;6.002;2022-10-30T08:07:55;13.60;99.90
25951;DHT22;13748;52.240;6.002;2022-10-30T08:10:23;13.60;99.90
25951;DHT22;13748;52.240;6.002;2022-10-30T08:12:49;13.70;99.90
25951;DHT22;13748;52.240;6.002;2022-10-30T08:15:16;13.70;99.90
25951;DHT22;13748;52.240;6.002;2022-10-30T08:17:45;13.80;99.90
25951;DHT22;13748;52.240;6.002;2022-10-30T08:20:13;13.90;99.90
25951;DHT22;13748;52.240;6.002;2022-10-30T08:22:47;13.90;99.90
25951;DHT22;13748;52.240;6.002;2022-10-30T08:25:16;14.00;99.90
25951;DHT22;13748;52.240;6.002;2022-10-30T08:27:54;14.00;99.90
25951;DHT22;13748;52.240;6.002;2022-10-30T08:30:23;14.10;99.90
25951;DHT22;13748;52.240;6.002;2022-10-30T08:32:50;14.10;99.90
25951;DHT22;13748;52.240;6.002;2022-10-30T08:35:17;14.20;99.90
25951;DHT22;13748;52.240;6.002;2022-10-30T08:37:48;14.20;99.90
25951;DHT22;13748;52.240;6.002;2022-10-30T08:40:15;14.30;99.90
25951;DHT22;13748;52.240;6.002;2022-10-30T08:42:42;14.40;99.90
25951;DHT22;13748;52.240;6.002;2022-10-30T08:45:15;14.40;99.90
25951;DHT22;13748;52.240;6.002;2022-10-30T08:47:41;14.50;99.90
25951;DHT22;13748;52.240;6.002;2022-10-30T08:50:08;14.50;99.90
25951;DHT22;13748;52.240;6.002;2022-10-30T08:52:35;14.60;99.90
25951;DHT22;13748;52.240;6.002;2022-10-30T08:55:02;14.60;99.90
25951;DHT22;13748;52.240;6.002;2022-10-30T08:57:35;14.70;99.90
25951;DHT22;13748;52.240;6.002;2022-10-30T09:00:04;14.80;99.90
25951;DHT22;13748;52.240;6.002;2022-10-30T09:02:32;14.80;99.90
25951;DHT22;13748;52.240;6.002;2022-10-30T09:05:00;14.90;99.90
25951;DHT22;13748;52.240;6.002;2022-10-30T09:07:26;15.00;99.90
25951;DHT22;13748;52.240;6.002;2022-10-30T09:09:53;15.00;99.90
25951;DHT22;13748;52.240;6.002;2022-10-30T09:12:20;15.10;99.90
25951;DHT22;13748;52.240;6.002;2022-10-30T09:14:46;15.20;99.90
25951;DHT22;13748;52.240;6.002;2022-10-30T09:17:13;15.20;99.90
25951;DHT22;13748;52.240;6.002;2022-10-30T09:19:40;15.30;99.90
25951;DHT22;13748;52.240;6.002;2022-10-30T09:22:07;15.30;99.90
25951;DHT22;13748;52.240;6.002;2022-10-30T09:24:34;15.30;99.90
25951;DHT22;13748;52.240;6.002;2022-10-30T09:27:01;15.40;99.90
25951;DHT22;13748;52.240;6.002;2022-10-30T09:29:28;15.50;99.90
25951;DHT22;13748;52.240;6.002;2022-10-30T09:32:00;15.50;99.90
25951;DHT22;13748;52.240;6.002;2022-10-30T09:34:27;15.60;99.90
25951;DHT22;13748;52.240;6.002;2022-10-30T09:36:54;15.70;99.90
25951;DHT22;13748;52.240;6.002;2022-10-30T09:39:21;15.70;99.90
25951;DHT22;13748;52.240;6.002;2022-10-30T09:48:11;15.90;99.90
25951;DHT22;13748;52.240;6.002;2022-10-30T09:51:04;16.10;99.90
25951;DHT22;13748;52.240;6.002;2022-10-30T09:59:43;16.30;99.90
25951;DHT22;13748;52.240;6.002;2022-10-30T10:05:40;16.50;99.90
25951;DHT22;13748;52.240;6.002;2022-10-30T10:08:16;16.60;99.90
25951;DHT22;13748;52.240;6.002;2022-10-30T10:10:47;16.70;99.90
25951;DHT22;13748;52.240;6.002;2022-10-30T10:13:44;16.80;99.90
25951;DHT22;13748;52.240;6.002;2022-10-30T10:16:24;16.90;99.90
25951;DHT22;13748;52.240;6.002;2022-10-30T10:19:15;16.90;99.90
25951;DHT22;13748;52.240;6.002;2022-10-30T10:21:59;17.00;99.90
25951;DHT22;13748;52.240;6.002;2022-10-30T10:24:36;17.10;99.90
25951;DHT22;13748;52.240;6.002;2022-10-30T10:27:41;17.20;99.90
25951;DHT22;13748;52.240;6.002;2022-10-30T10:30:19;17.40;99.90
25951;DHT22;13748;52.240;6.002;2022-10-30T10:35:51;17.50;99.90
25951;DHT22;13748;52.240;6.002;2022-10-30T10:47:30;17.90;99.90
25951;DHT22;13748;52.240;6.002;2022-10-30T10:53:06;18.20;99.90
25951;DHT22;13748;52.240;6.002;2022-10-30T11:01:41;18.60;99.90
25951;DHT22;13748;52.240;6.002;2022-10-30T11:04:17;18.80;99.90
25951;DHT22;13748;52.240;6.002;2022-10-30T11:06:49;18.90;99.90
25951;DHT22;13748;52.240;6.002;2022-10-30T11:09:22;19.00;99.90
25951;DHT22;13748;52.240;6.002;2022-10-30T11:11:51;19.10;99.90
25951;DHT22;13748;52.240;6.002;2022-10-30T11:14:24;19.20;99.90
25951;DHT22;13748;52.240;6.002;2022-10-30T11:19:38;19.30;99.90
25951;DHT22;13748;52.240;6.002;2022-10-30T11:22:36;19.40;99.90
25951;DHT22;13748;52.240;6.002;2022-10-30T11:25:32;19.50;99.90
25951;DHT22;13748;52.240;6.002;2022-10-30T11:28:01;19.50;99.90
25951;DHT22;13748;52.240;6.002;2022-10-30T11:30:30;19.60;99.90
25951;DHT22;13748;52.240;6.002;2022-10-30T11:32:58;19.70;99.90
25951;DHT22;13748;52.240;6.002;2022-10-30T11:35:25;19.70;99.90
25951;DHT22;13748;52.240;6.002;2022-10-30T11:38:18;19.80;99.90
25951;DHT22;13748;52.240;6.002;2022-10-30T11:40:50;19.80;99.90
25951;DHT22;13748;52.240;6.002;2022-10-30T11:43:21;19.90;99.90
25951;DHT22;13748;52.240;6.002;2022-10-30T11:45:49;20.00;99.90
25951;DHT22;13748;52.240;6.002;2022-10-30T11:48:23;20.00;99.90
25951;DHT22;13748;52.240;6.002;2022-10-30T11:53:36;20.20;99.90
25951;DHT22;13748;52.240;6.002;2022-10-30T11:56:23;20.30;99.90
25951;DHT22;13748;52.240;6.002;2022-10-30T11:58:52;20.40;99.90
25951;DHT22;13748;52.240;6.002;2022-10-30T12:01:28;20.60;99.90
25951;DHT22;13748;52.240;6.002;2022-10-30T12:03:56;20.70;99.90
25951;DHT22;13748;52.240;6.002;2022-10-30T12:06:38;20.80;99.90
25951;DHT22;13748;52.240;6.002;2022-10-30T12:09:20;20.80;99.90
25951;DHT22;13748;52.240;6.002;2022-10-30T12:11:48;20.90;99.90
25951;DHT22;13748;52.240;6.002;2022-10-30T12:14:18;20.90;99.90
25951;DHT22;13748;52.240;6.002;2022-10-30T12:16:54;21.00;99.90
25951;DHT22;13748;52.240;6.002;2022-10-30T12:19:23;21.00;99.90
25951;DHT22;13748;52.240;6.002;2022-10-30T12:21:52;21.00;99.90
25951;DHT22;13748;52.240;6.002;2022-10-30T12:24:31;21.10;99.90
25951;DHT22;13748;52.240;6.002;2022-10-30T12:27:05;21.00;99.90
25951;DHT22;13748;52.240;6.002;2022-10-30T12:32:59;21.00;99.90
25951;DHT22;13748;52.240;6.002;2022-10-30T12:38:20;21.00;99.90
25951;DHT22;13748;52.240;6.002;2022-10-30T12:41:03;21.00;99.90
25951;DHT22;13748;52.240;6.002;2022-10-30T12:43:34;21.00;99.90
25951;DHT22;13748;52.240;6.002;2022-10-30T12:47:07;21.00;99.90
25951;DHT22;13748;52.240;6.002;2022-10-30T12:49:19;21.00;99.90
25951;DHT22;13748;52.240;6.002;2022-10-30T12:52:10;21.00;99.90
25951;DHT22;13748;52.240;6.002;2022-10-30T12:57:19;21.00;99.90
25951;DHT22;13748;52.240;6.002;2022-10-30T13:05:46;21.10;99.90
25951;DHT22;13748;52.240;6.002;2022-10-30T13:08:31;21.10;99.90
25951;DHT22;13748;52.240;6.002;2022-10-30T13:13:56;21.10;99.90
25951;DHT22;13748;52.240;6.002;2022-10-30T13:16:26;21.00;99.90
25951;DHT22;13748;52.240;6.002;2022-10-30T13:18:59;21.00;99.90
25951;DHT22;13748;52.240;6.002;2022-10-30T13:26:47;20.90;99.90
25951;DHT22;13748;52.240;6.002;2022-10-30T13:29:30;20.90;99.90
25951;DHT22;13748;52.240;6.002;2022-10-30T13:32:22;20.90;99.90
25951;DHT22;13748;52.240;6.002;2022-10-30T13:37:48;20.90;99.90
25951;DHT22;13748;52.240;6.002;2022-10-30T13:43:24;20.90;99.90
25951;DHT22;13748;52.240;6.002;2022-10-30T13:46:24;20.90;99.90
25951;DHT22;13748;52.240;6.002;2022-10-30T13:49:14;21.00;99.90
25951;DHT22;13748;52.240;6.002;2022-10-30T13:51:53;21.00;99.90
25951;DHT22;13748;52.240;6.002;2022-10-30T13:54:31;21.00;99.90
25951;DHT22;13748;52.240;6.002;2022-10-30T13:57:08;21.10;99.90
25951;DHT22;13748;52.240;6.002;2022-10-30T14:00:00;21.20;99.90
25951;DHT22;13748;52.240;6.002;2022-10-30T14:05:25;21.40;99.90
25951;DHT22;13748;52.240;6.002;2022-10-30T14:08:21;21.30;99.90
25951;DHT22;13748;52.240;6.002;2022-10-30T14:10:53;21.30;99.90
25951;DHT22;13748;52.240;6.002;2022-10-30T14:13:27;21.30;99.90
25951;DHT22;13748;52.240;6.002;2022-10-30T14:18:58;21.20;99.90
25951;DHT22;13748;52.240;6.002;2022-10-30T14:21:52;21.10;99.90
25951;DHT22;13748;52.240;6.002;2022-10-30T14:24:28;20.90;99.90
25951;DHT22;13748;52.240;6.002;2022-10-30T14:39:52;20.30;99.90
25951;DHT22;13748;52.240;6.002;2022-10-30T14:55:59;19.90;99.90
25951;DHT22;13748;52.240;6.002;2022-10-30T14:58:33;19.90;99.90
25951;DHT22;13748;52.240;6.002;2022-10-30T15:06:12;19.80;99.90
25951;DHT22;13748;52.240;6.002;2022-10-30T15:14:09;20.00;99.90
25951;DHT22;13748;52.240;6.002;2022-10-30T15:16:52;20.00;99.90
25951;DHT22;13748;52.240;6.002;2022-10-30T15:19:21;20.00;99.90
25951;DHT22;13748;52.240;6.002;2022-10-30T15:21:51;20.00;99.90
25951;DHT22;13748;52.240;6.002;2022-10-30T15:24:21;20.00;99.90
25951;DHT22;13748;52.240;6.002;2022-10-30T15:26:56;20.00;99.90
25951;DHT22;13748;52.240;6.002;2022-10-30T15:29:27;19.90;99.90
25951;DHT22;13748;52.240;6.002;2022-10-30T15:31:57;19.90;99.90
25951;DHT22;13748;52.240;6.002;2022-10-30T15:34:26;19.90;99.90
25951;DHT22;13748;52.240;6.002;2022-10-30T15:36:54;19.70;99.90
25951;DHT22;13748;52.240;6.002;2022-10-30T15:39:22;19.70;99.90
25951;DHT22;13748;52.240;6.002;2022-10-30T15:42:00;19.60;99.90
25951;DHT22;13748;52.240;6.002;2022-10-30T15:44:30;19.50;99.90
25951;DHT22;13748;52.240;6.002;2022-10-30T15:47:00;19.50;99.90
25951;DHT22;13748;52.240;6.002;2022-10-30T15:49:40;19.40;99.90
25951;DHT22;13748;52.240;6.002;2022-10-30T15:52:26;19.30;99.90
25951;DHT22;13748;52.240;6.002;2022-10-30T15:55:04;19.20;99.90
25951;DHT22;13748;52.240;6.002;2022-10-30T15:57:35;19.10;99.90
25951;DHT22;13748;52.240;6.002;2022-10-30T16:00:53;19.00;99.90
25951;DHT22;13748;52.240;6.002;2022-10-30T16:03:20;18.90;99.90
25951;DHT22;13748;52.240;6.002;2022-10-30T16:05:47;18.80;99.90
25951;DHT22;13748;52.240;6.002;2022-10-30T16:08:21;18.80;99.90
25951;DHT22;13748;52.240;6.002;2022-10-30T16:10:51;18.70;99.90
25951;DHT22;13748;52.240;6.002;2022-10-30T16:13:24;18.70;99.90
25951;DHT22;13748;52.240;6.002;2022-10-30T16:15:53;18.60;99.90
25951;DHT22;13748;52.240;6.002;2022-10-30T16:18:25;18.60;99.90
25951;DHT22;13748;52.240;6.002;2022-10-30T16:21:03;18.50;99.90
25951;DHT22;13748;52.240;6.002;2022-10-30T16:23:49;18.50;99.90
25951;DHT22;13748;52.240;6.002;2022-10-30T16:26:32;18.40;99.90
25951;DHT22;13748;52.240;6.002;2022-10-30T16:29:22;18.30;99.90
25951;DHT22;13748;52.240;6.002;2022-10-30T16:31:50;18.20;99.90
25951;DHT22;13748;52.240;6.002;2022-10-30T16:34:31;18.10;99.90
25951;DHT22;13748;52.240;6.002;2022-10-30T16:37:07;18.10;99.90
25951;DHT22;13748;52.240;6.002;2022-10-30T16:39:37;18.10;99.90
25951;DHT22;13748;52.240;6.002;2022-10-30T16:42:04;18.00;99.90
25951;DHT22;13748;52.240;6.002;2022-10-30T16:44:33;18.00;99.90
25951;DHT22;13748;52.240;6.002;2022-10-30T16:49:36;17.90;99.90
25951;DHT22;13748;52.240;6.002;2022-10-30T16:52:06;17.80;99.90
25951;DHT22;13748;52.240;6.002;2022-10-30T16:54:45;17.80;99.90
25951;DHT22;13748;52.240;6.002;2022-10-30T16:57:26;17.80;99.90
25951;DHT22;13748;52.240;6.002;2022-10-30T16:59:58;17.80;99.90
25951;DHT22;13748;52.240;6.002;2022-10-30T17:02:29;17.80;99.90
25951;DHT22;13748;52.240;6.002;2022-10-30T17:07:37;17.80;99.90
25951;DHT22;13748;52.240;6.002;2022-10-30T17:10:29;17.70;99.90
25951;DHT22;13748;52.240;6.002;2022-10-30T17:14:17;17.70;99.90
25951;DHT22;13748;52.240;6.002;2022-10-30T17:18:50;17.70;99.90
25951;DHT22;13748;52.240;6.002;2022-10-30T17:21:21;17.60;99.90
25951;DHT22;13748;52.240;6.002;2022-10-30T17:23:51;17.60;99.90
25951;DHT22;13748;52.240;6.002;2022-10-30T17:26:19;17.60;99.90
25951;DHT22;13748;52.240;6.002;2022-10-30T17:28:47;17.60;99.90
25951;DHT22;13748;52.240;6.002;2022-10-30T17:34:02;17.60;99.90
25951;DHT22;13748;52.240;6.002;2022-10-30T17:36:29;17.60;99.90
25951;DHT22;13748;52.240;6.002;2022-10-30T17:38:56;17.60;99.90
25951;DHT22;13748;52.240;6.002;2022-10-30T17:41:23;17.60;99.90
25951;DHT22;13748;52.240;6.002;2022-10-30T17:43:52;17.60;99.90
25951;DHT22;13748;52.240;6.002;2022-10-30T17:46:20;17.70;99.90
25951;DHT22;13748;52.240;6.002;2022-10-30T17:48:47;17.70;99.90
25951;DHT22;13748;52.240;6.002;2022-10-30T17:51:15;17.60;99.90
25951;DHT22;13748;52.240;6.002;2022-10-30T17:53:43;17.60;99.90
25951;DHT22;13748;52.240;6.002;2022-10-30T17:56:25;17.60;99.90
25951;DHT22;13748;52.240;6.002;2022-10-30T17:58:53;17.60;99.90
25951;DHT22;13748;52.240;6.002;2022-10-30T18:01:24;17.60;99.90
25951;DHT22;13748;52.240;6.002;2022-10-30T18:03:53;17.60;99.90
25951;DHT22;13748;52.240;6.002;2022-10-30T18:06:25;17.60;99.90
25951;DHT22;13748;52.240;6.002;2022-10-30T18:08:53;17.60;99.90
25951;DHT22;13748;52.240;6.002;2022-10-30T18:11:22;17.60;99.90
25951;DHT22;13748;52.240;6.002;2022-10-30T18:13:50;17.50;99.90
25951;DHT22;13748;52.240;6.002;2022-10-30T18:16:18;17.50;99.90